createdAt,value
2022-10-18T00:01:08.099Z,14.37
2022-10-18T00:03:35.772Z,14.36
2022-10-18T00:06:02.590Z,14.33
2022-10-18T00:08:29.653Z,14.32
2022-10-18T00:10:57.004Z,14.33
2022-10-18T00:13:24.385Z,14.32
2022-10-18T00:15:57.188Z,14.32
2022-10-18T00:18:24.041Z,14.31
2022-10-18T00:21:07.678Z,14.28
2022-10-18T00:23:35.638Z,14.29
2022-10-18T00:26:06.764Z,14.29
2022-10-18T00:28:34.678Z,14.30
2022-10-18T00:31:21.813Z,14.28
2022-10-18T00:33:52.970Z,14.27
2022-10-18T00:36:20.446Z,14.27
2022-10-18T00:38:47.925Z,14.27
2022-10-18T00:41:18.048Z,14.28
2022-10-18T00:44:06.257Z,14.27
2022-10-18T00:46:38.444Z,14.25
2022-10-18T00:49:11.278Z,14.23
2022-10-18T00:51:48.329Z,14.22
2022-10-18T00:54:17.011Z,14.23
2022-10-18T00:56:44.999Z,14.22
2022-10-18T00:59:13.513Z,14.21
2022-10-18T01:01:40.082Z,14.22
2022-10-18T01:04:06.745Z,14.23
2022-10-18T01:06:42.099Z,14.21
2022-10-18T01:09:28.994Z,14.18
2022-10-18T01:12:09.045Z,14.18
2022-10-18T01:15:11.479Z,14.18
2022-10-18T01:17:59.729Z,14.18
2022-10-18T01:20:54.080Z,14.16
2022-10-18T01:23:32.964Z,14.13
2022-10-18T01:26:17.426Z,14.13
2022-10-18T01:29:14.729Z,14.15
2022-10-18T01:31:46.921Z,14.14
2022-10-18T01:34:17.549Z,14.12
2022-10-18T01:36:48.772Z,14.10
2022-10-18T01:39:21.951Z,14.10
2022-10-18T01:41:51.481Z,14.10
2022-10-18T01:44:26.397Z,14.09
2022-10-18T01:46:56.202Z,14.07
2022-10-18T01:49:24.983Z,14.07
2022-10-18T01:51:51.439Z,14.07
2022-10-18T01:54:24.068Z,14.07
2022-10-18T01:57:11.968Z,14.07
2022-10-18T01:59:51.808Z,14.06
2022-10-18T02:02:31.234Z,14.04
2022-10-18T02:05:14.307Z,14.02
2022-10-18T02:08:12.299Z,14.00
2022-10-18T02:10:51.222Z,13.95
2022-10-18T02:13:21.402Z,13.94
2022-10-18T02:15:52.376Z,13.90
2022-10-18T02:18:25.566Z,13.86
2022-10-18T02:20:53.008Z,13.85
2022-10-18T02:23:22.955Z,13.87
2022-10-18T02:25:50.307Z,13.86
2022-10-18T02:28:16.936Z,13.86
2022-10-18T02:31:04.680Z,13.83
2022-10-18T02:33:38.474Z,13.79
2022-10-18T02:36:15.370Z,13.76
2022-10-18T02:38:44.729Z,13.73
2022-10-18T02:41:11.308Z,13.72
2022-10-18T02:43:39.960Z,13.69
2022-10-18T02:46:06.635Z,13.69
2022-10-18T02:48:33.316Z,13.67
2022-10-18T02:50:59.797Z,13.65
2022-10-18T02:53:26.382Z,13.63
2022-10-18T02:55:53.252Z,13.57
2022-10-18T02:58:19.926Z,13.55
2022-10-18T03:00:49.947Z,13.53
2022-10-18T03:03:17.197Z,13.51
2022-10-18T03:05:43.794Z,13.49
2022-10-18T03:08:10.602Z,13.45
2022-10-18T03:10:37.345Z,13.44
2022-10-18T03:13:03.941Z,13.43
2022-10-18T03:15:30.503Z,13.42
2022-10-18T03:17:56.994Z,13.40
2022-10-18T03:20:26.196Z,13.38
2022-10-18T03:22:52.948Z,13.37
2022-10-18T03:25:19.602Z,13.35
2022-10-18T03:27:46.236Z,13.33
2022-10-18T03:30:13.831Z,13.31
2022-10-18T03:32:40.582Z,13.30
2022-10-18T03:35:08.404Z,13.29
2022-10-18T03:37:35.765Z,13.25
2022-10-18T03:40:03.167Z,13.25
2022-10-18T03:42:30.186Z,13.24
2022-10-18T03:44:57.055Z,13.21
2022-10-18T03:47:23.848Z,13.19
2022-10-18T03:49:53.215Z,13.20
2022-10-18T03:52:22.848Z,13.17
2022-10-18T03:54:49.410Z,13.13
2022-10-18T03:57:16.024Z,13.11
2022-10-18T03:59:42.586Z,13.10
2022-10-18T04:02:09.237Z,13.09
2022-10-18T04:04:35.733Z,13.06
2022-10-18T04:07:02.333Z,13.02
2022-10-18T04:09:28.866Z,12.98
2022-10-18T04:11:55.463Z,12.96
2022-10-18T04:14:22.170Z,12.91
2022-10-18T04:16:48.836Z,12.89
2022-10-18T04:19:15.566Z,12.89
2022-10-18T04:21:42.232Z,12.84
2022-10-18T04:24:11.544Z,12.76
2022-10-18T04:26:38.085Z,12.73
2022-10-18T04:29:04.879Z,12.72
2022-10-18T04:31:31.837Z,12.68
2022-10-18T04:33:58.500Z,12.67
2022-10-18T04:36:25.006Z,12.65
2022-10-18T04:38:51.555Z,12.63
2022-10-18T04:41:18.162Z,12.61
2022-10-18T04:46:12.302Z,12.54
2022-10-18T04:48:41.779Z,12.51
2022-10-18T04:51:08.262Z,12.49
2022-10-18T04:53:34.790Z,12.45
2022-10-18T04:56:01.367Z,12.44
2022-10-18T04:58:28.023Z,12.41
2022-10-18T05:00:54.486Z,12.39
2022-10-18T05:03:21.083Z,12.37
2022-10-18T05:06:01.436Z,12.33
2022-10-18T05:08:29.302Z,12.30
2022-10-18T05:10:55.855Z,12.28
2022-10-18T05:13:22.326Z,12.27
2022-10-18T05:15:49.015Z,12.26
2022-10-18T05:18:15.830Z,12.23
2022-10-18T05:20:42.310Z,12.21
2022-10-18T05:23:11.444Z,12.18
2022-10-18T05:25:40.885Z,12.17
2022-10-18T05:28:10.827Z,12.14
2022-10-18T05:30:47.945Z,12.10
2022-10-18T05:33:15.186Z,12.06
2022-10-18T05:35:41.814Z,12.00
2022-10-18T05:38:08.563Z,11.97
2022-10-18T05:40:39.679Z,11.92
2022-10-18T05:43:06.434Z,11.90
2022-10-18T05:45:33.014Z,11.87
2022-10-18T05:48:00.302Z,11.85
2022-10-18T05:50:26.885Z,11.84
2022-10-18T05:53:06.746Z,11.85
2022-10-18T05:55:39.155Z,11.86
2022-10-18T05:58:05.712Z,11.89
2022-10-18T06:00:32.348Z,11.90
2022-10-18T06:03:00.371Z,11.92
2022-10-18T06:05:27.641Z,11.93
2022-10-18T06:07:54.376Z,11.90
2022-10-18T06:10:20.921Z,11.88
2022-10-18T06:12:47.566Z,11.88
2022-10-18T06:15:14.224Z,11.90
2022-10-18T06:17:41.361Z,11.90
2022-10-18T06:20:08.746Z,11.87
2022-10-18T06:22:35.278Z,11.85
2022-10-18T06:25:01.890Z,11.86
2022-10-18T06:27:28.416Z,11.87
2022-10-18T06:29:55.618Z,11.84
2022-10-18T06:32:22.355Z,11.83
2022-10-18T06:34:48.999Z,11.85
2022-10-18T06:37:15.699Z,11.90
2022-10-18T06:39:42.313Z,11.97
2022-10-18T06:42:08.909Z,12.01
2022-10-18T06:44:35.741Z,12.07
2022-10-18T06:47:02.388Z,12.12
2022-10-18T06:49:29.362Z,12.17
2022-10-18T06:51:56.052Z,12.26
2022-10-18T06:54:23.746Z,12.34
2022-10-18T06:56:50.699Z,12.41
2022-10-18T06:59:18.409Z,12.46
2022-10-18T07:01:45.026Z,12.53
2022-10-18T07:04:11.985Z,12.60
2022-10-18T07:06:46.381Z,12.64
2022-10-18T07:09:12.959Z,12.67
2022-10-18T07:11:41.627Z,12.75
2022-10-18T07:14:09.558Z,12.81
2022-10-18T07:16:40.148Z,12.92
2022-10-18T07:19:06.828Z,13.02
2022-10-18T07:21:35.099Z,13.09
2022-10-18T07:24:04.646Z,13.15
2022-10-18T07:26:33.392Z,13.23
2022-10-18T07:29:08.702Z,13.29
2022-10-18T07:31:35.727Z,13.33
2022-10-18T07:34:04.963Z,13.38
2022-10-18T07:36:33.953Z,13.41
2022-10-18T07:39:00.970Z,13.45
2022-10-18T07:41:29.341Z,13.51
2022-10-18T07:43:56.154Z,13.53
2022-10-18T07:46:23.305Z,13.57
2022-10-18T07:48:51.920Z,13.60
2022-10-18T07:51:20.315Z,13.64
2022-10-18T07:53:47.228Z,13.67
2022-10-18T07:56:16.619Z,13.69
2022-10-18T07:58:44.775Z,13.70
2022-10-18T08:01:12.981Z,13.75
2022-10-18T08:03:44.958Z,13.76
2022-10-18T08:06:14.749Z,13.75
2022-10-18T08:08:44.843Z,13.76
2022-10-18T08:11:19.646Z,13.76
2022-10-18T08:13:47.191Z,13.80
2022-10-18T08:16:18.458Z,13.83
2022-10-18T08:18:45.596Z,13.84
2022-10-18T08:21:13.699Z,13.86
2022-10-18T08:23:41.100Z,13.88
2022-10-18T08:26:12.387Z,13.90
2022-10-18T08:28:46.022Z,13.94
2022-10-18T08:31:20.524Z,13.97
2022-10-18T08:33:48.786Z,14.01
2022-10-18T08:36:18.555Z,14.03
2022-10-18T08:38:45.215Z,14.07
2022-10-18T08:41:23.075Z,14.11
2022-10-18T08:43:52.663Z,14.13
2022-10-18T08:46:19.441Z,14.17
2022-10-18T08:48:50.199Z,14.18
2022-10-18T08:51:30.168Z,14.24
2022-10-18T08:54:06.825Z,14.27
2022-10-18T08:56:33.977Z,14.28
2022-10-18T08:59:05.852Z,14.32
2022-10-18T09:01:58.285Z,14.38
2022-10-18T09:04:44.742Z,14.41
2022-10-18T09:07:56.530Z,14.48
2022-10-18T09:10:44.248Z,14.54
2022-10-18T09:13:26.965Z,14.60
2022-10-18T09:16:00.082Z,14.64
2022-10-18T09:18:48.399Z,14.72
2022-10-18T09:21:20.998Z,14.83
2022-10-18T09:23:52.268Z,14.90
2022-10-18T09:26:22.777Z,14.98
2022-10-18T09:29:27.213Z,15.09
2022-10-18T09:32:08.326Z,15.17
2022-10-18T09:34:50.820Z,15.26
2022-10-18T09:37:20.916Z,15.36
2022-10-18T09:39:50.480Z,15.44
2022-10-18T09:42:41.840Z,15.57
2022-10-18T09:45:29.846Z,15.69
2022-10-18T09:48:27.868Z,15.78
2022-10-18T09:51:03.422Z,15.86
2022-10-18T09:54:11.774Z,15.96
2022-10-18T09:56:50.107Z,16.07
2022-10-18T09:59:20.674Z,16.17
2022-10-18T10:01:47.273Z,16.28
2022-10-18T10:04:15.530Z,16.33
2022-10-18T10:06:50.170Z,16.43
2022-10-18T10:09:21.152Z,16.56
2022-10-18T10:11:50.027Z,16.67
2022-10-18T10:14:23.690Z,16.78
2022-10-18T10:16:54.052Z,16.89
2022-10-18T10:19:39.880Z,16.96
2022-10-18T10:22:10.535Z,17.04
2022-10-18T10:24:53.303Z,17.11
2022-10-18T10:27:21.803Z,17.16
2022-10-18T10:29:51.557Z,17.27
2022-10-18T10:32:21.093Z,17.36
2022-10-18T10:34:47.862Z,17.41
2022-10-18T10:37:26.436Z,17.40
2022-10-18T10:40:17.844Z,17.45
2022-10-18T10:43:08.987Z,17.44
2022-10-18T10:46:09.922Z,17.45
2022-10-18T10:48:47.275Z,17.57
2022-10-18T10:51:16.125Z,17.52
2022-10-18T10:53:57.598Z,17.56
2022-10-18T10:56:28.716Z,17.59
2022-10-18T10:59:01.960Z,17.63
2022-10-18T11:01:32.663Z,17.64
2022-10-18T11:04:03.462Z,17.72
2022-10-18T11:06:43.027Z,17.79
2022-10-18T11:09:24.490Z,17.73
2022-10-18T11:12:03.825Z,17.73
2022-10-18T11:14:36.888Z,17.75
2022-10-18T11:17:07.750Z,17.77
2022-10-18T11:19:55.793Z,17.87
2022-10-18T11:22:27.743Z,17.86
2022-10-18T11:24:54.544Z,17.92
2022-10-18T11:27:38.086Z,18.08
2022-10-18T11:30:37.789Z,18.06
2022-10-18T11:33:11.938Z,18.04
2022-10-18T11:36:04.608Z,18.09
2022-10-18T11:38:59.222Z,18.16
2022-10-18T11:41:34.835Z,18.25
2022-10-18T11:44:17.067Z,18.25
2022-10-18T11:47:07.317Z,18.27
2022-10-18T11:49:42.659Z,18.29
2022-10-18T11:52:12.296Z,18.37
2022-10-18T11:54:56.383Z,18.37
2022-10-18T11:57:34.704Z,18.44
2022-10-18T12:00:14.908Z,18.44
2022-10-18T12:03:15.763Z,18.45
2022-10-18T12:05:51.469Z,18.60
2022-10-18T12:08:47.492Z,18.50
2022-10-18T12:11:22.400Z,18.45
2022-10-18T12:13:55.372Z,18.50
2022-10-18T12:16:45.457Z,18.61
2022-10-18T12:19:23.594Z,18.51
2022-10-18T12:21:54.124Z,18.54
2022-10-18T12:24:25.331Z,18.58
2022-10-18T12:26:57.416Z,18.59
2022-10-18T12:29:40.240Z,18.57
2022-10-18T12:32:13.606Z,18.65
2022-10-18T12:34:50.853Z,18.59
2022-10-18T12:37:38.327Z,18.61
2022-10-18T12:40:21.449Z,18.72
2022-10-18T12:42:51.276Z,18.57
2022-10-18T12:45:35.487Z,18.59
2022-10-18T12:48:06.952Z,18.62
2022-10-18T12:50:40.692Z,18.72
2022-10-18T12:53:12.909Z,18.72
2022-10-18T12:55:46.128Z,18.66
2022-10-18T12:58:35.689Z,18.67
2022-10-18T13:01:06.148Z,18.67
2022-10-18T13:03:51.196Z,18.67
2022-10-18T13:06:22.717Z,18.62
2022-10-18T13:09:16.017Z,18.61
2022-10-18T13:11:43.691Z,18.53
2022-10-18T13:15:05.684Z,18.60
2022-10-18T13:18:22.655Z,18.71
2022-10-18T13:21:10.158Z,18.68
2022-10-18T13:23:50.951Z,18.63
2022-10-18T13:26:38.499Z,18.65
2022-10-18T13:29:14.265Z,18.64
2022-10-18T13:31:54.842Z,18.63
2022-10-18T13:34:49.607Z,18.60
2022-10-18T13:37:16.259Z,18.59
2022-10-18T13:39:43.065Z,18.61
2022-10-18T13:42:43.387Z,18.69
2022-10-18T13:45:35.998Z,18.72
2022-10-18T13:48:30.028Z,18.72
2022-10-18T13:51:50.247Z,18.69
2022-10-18T13:55:09.210Z,18.71
2022-10-18T13:57:53.597Z,18.79
2022-10-18T14:00:58.396Z,18.79
2022-10-18T14:04:13.034Z,18.71
2022-10-18T14:06:49.101Z,18.68
2022-10-18T14:12:49.102Z,18.68
2022-10-18T14:15:21.049Z,18.66
2022-10-18T14:23:57.977Z,18.56
2022-10-18T14:26:24.744Z,18.59
2022-10-18T14:29:12.543Z,18.63
2022-10-18T14:31:39.332Z,18.55
2022-10-18T14:34:06.514Z,18.44
2022-10-18T14:36:43.988Z,18.35
2022-10-18T14:39:22.860Z,18.30
2022-10-18T14:41:53.518Z,18.27
2022-10-18T14:44:26.619Z,18.25
2022-10-18T14:47:27.190Z,18.25
2022-10-18T14:49:54.712Z,18.15
2022-10-18T14:52:29.456Z,17.99
2022-10-18T14:55:01.414Z,18.03
2022-10-18T14:57:33.334Z,18.00
2022-10-18T15:00:03.402Z,17.94
2022-10-18T15:02:35.930Z,17.87
2022-10-18T15:05:19.765Z,17.84
2022-10-18T15:07:47.410Z,17.78
2022-10-18T15:10:17.428Z,17.73
2022-10-18T15:13:08.102Z,17.72
2022-10-18T15:15:34.871Z,17.70
2022-10-18T15:18:05.221Z,17.65
2022-10-18T15:20:39.640Z,17.67
2022-10-18T15:23:42.774Z,17.61
2022-10-18T15:26:13.271Z,17.56
2022-10-18T15:28:51.213Z,17.53
2022-10-18T15:31:33.285Z,17.51
2022-10-18T15:34:23.438Z,17.44
2022-10-18T15:36:53.993Z,17.42
2022-10-18T15:39:24.715Z,17.39
2022-10-18T15:42:00.430Z,17.33
2022-10-18T15:44:42.212Z,17.26
2022-10-18T15:47:35.324Z,17.21
2022-10-18T15:50:02.626Z,17.13
2022-10-18T15:52:39.502Z,17.11
2022-10-18T15:55:52.618Z,17.17
2022-10-18T15:58:23.412Z,17.08
2022-10-18T16:00:52.618Z,17.03
2022-10-18T16:03:22.156Z,16.99
2022-10-18T16:05:53.436Z,16.93
2022-10-18T16:08:25.930Z,16.90
2022-10-18T16:10:52.791Z,16.83
2022-10-18T16:13:19.760Z,16.83
2022-10-18T16:15:47.002Z,16.82
2022-10-18T16:18:16.338Z,16.81
2022-10-18T16:20:43.330Z,16.77
2022-10-18T16:23:17.322Z,16.73
2022-10-18T16:25:44.113Z,16.68
2022-10-18T16:28:19.140Z,16.62
2022-10-18T16:30:53.182Z,16.57
2022-10-18T16:33:21.601Z,16.53
2022-10-18T16:35:48.957Z,16.52
2022-10-18T16:38:34.293Z,16.50
2022-10-18T16:41:06.797Z,16.46
2022-10-18T16:43:37.138Z,16.41
2022-10-18T16:46:05.011Z,16.36
2022-10-18T16:48:32.734Z,16.32
2022-10-18T16:51:01.281Z,16.28
2022-10-18T16:53:28.189Z,16.24
2022-10-18T16:56:00.053Z,16.17
2022-10-18T16:58:28.791Z,16.14
2022-10-18T17:00:55.799Z,16.11
2022-10-18T17:03:22.526Z,16.04
2022-10-18T17:05:53.190Z,15.99
2022-10-18T17:08:22.763Z,15.96
2022-10-18T17:10:54.021Z,15.90
2022-10-18T17:13:21.939Z,15.87
2022-10-18T17:15:51.081Z,15.84
2022-10-18T17:18:21.729Z,15.83
2022-10-18T17:20:50.470Z,15.81
2022-10-18T17:23:18.811Z,15.75
2022-10-18T17:25:57.852Z,15.70
2022-10-18T17:28:33.222Z,15.63
2022-10-18T17:31:02.265Z,15.61
2022-10-18T17:33:32.847Z,15.54
2022-10-18T17:35:59.443Z,15.49
2022-10-18T17:38:28.129Z,15.48
2022-10-18T17:40:54.884Z,15.47
2022-10-18T17:43:21.482Z,15.45
2022-10-18T17:45:55.296Z,15.46
2022-10-18T17:48:22.723Z,15.42
2022-10-18T17:50:49.470Z,15.40
2022-10-18T17:53:18.415Z,15.38
2022-10-18T17:55:45.166Z,15.37
2022-10-18T17:58:12.537Z,15.34
2022-10-18T18:00:41.136Z,15.29
2022-10-18T18:03:08.066Z,15.24
2022-10-18T18:05:34.798Z,15.16
2022-10-18T18:08:04.073Z,15.10
2022-10-18T18:10:33.935Z,15.01
2022-10-18T18:13:01.521Z,14.98
2022-10-18T18:15:28.265Z,14.94
2022-10-18T18:17:57.411Z,14.93
2022-10-18T18:20:26.943Z,14.88
2022-10-18T18:22:55.589Z,14.84
2022-10-18T18:25:22.715Z,14.82
2022-10-18T18:27:51.954Z,14.83
2022-10-18T18:30:18.877Z,14.81
2022-10-18T18:32:45.788Z,14.80
2022-10-18T18:35:12.652Z,14.76
2022-10-18T18:37:40.664Z,14.74
2022-10-18T18:40:10.515Z,14.72
2022-10-18T18:42:37.114Z,14.71
2022-10-18T18:45:05.262Z,14.66
2022-10-18T18:47:35.626Z,14.62
2022-10-18T18:50:07.913Z,14.55
2022-10-18T18:52:35.016Z,14.46
2022-10-18T18:55:01.897Z,14.36
2022-10-18T18:57:28.557Z,14.26
2022-10-18T18:59:55.131Z,14.17
2022-10-18T19:02:22.015Z,14.18
2022-10-18T19:04:53.769Z,14.22
2022-10-18T19:07:20.609Z,14.16
2022-10-18T19:09:50.739Z,14.13
2022-10-18T19:12:22.419Z,14.06
2022-10-18T19:14:49.328Z,13.95
2022-10-18T19:17:16.245Z,13.92
2022-10-18T19:19:45.892Z,13.91
2022-10-18T19:22:15.221Z,13.86
2022-10-18T19:24:44.311Z,13.80
2022-10-18T19:27:16.656Z,13.73
2022-10-18T19:29:46.560Z,13.70
2022-10-18T19:32:15.066Z,13.67
2022-10-18T19:34:41.771Z,13.61
2022-10-18T19:37:13.194Z,13.53
2022-10-18T19:39:39.866Z,13.47
2022-10-18T19:42:09.995Z,13.46
2022-10-18T19:44:37.418Z,13.42
2022-10-18T19:47:05.906Z,13.36
2022-10-18T19:49:35.305Z,13.34
2022-10-18T19:52:02.149Z,13.31
2022-10-18T19:54:29.062Z,13.27
2022-10-18T19:56:56.008Z,13.20
2022-10-18T19:59:24.874Z,13.18
2022-10-18T20:01:51.796Z,13.12
2022-10-18T20:04:18.372Z,13.06
2022-10-18T20:06:44.964Z,12.99
2022-10-18T20:09:16.088Z,12.94
2022-10-18T20:11:46.226Z,12.82
2022-10-18T20:14:12.907Z,12.72
2022-10-18T20:16:42.656Z,12.57
2022-10-18T20:19:10.639Z,12.46
2022-10-18T20:21:37.283Z,12.34
2022-10-18T20:24:12.430Z,12.25
2022-10-18T20:26:40.693Z,12.19
2022-10-18T20:29:08.284Z,12.11
2022-10-18T20:31:38.658Z,12.01
2022-10-18T20:34:11.751Z,11.89
2022-10-18T20:36:38.948Z,11.83
2022-10-18T20:39:07.061Z,11.71
2022-10-18T20:41:40.949Z,11.61
2022-10-18T20:44:14.952Z,11.54
2022-10-18T20:46:43.181Z,11.47
2022-10-18T20:49:13.604Z,11.42
2022-10-18T20:51:40.703Z,11.32
2022-10-18T20:54:09.634Z,11.24
2022-10-18T20:56:39.478Z,11.17
2022-10-18T20:59:10.093Z,11.10
2022-10-18T21:01:38.702Z,11.02
2022-10-18T21:04:07.810Z,10.99
2022-10-18T21:06:37.129Z,10.93
2022-10-18T21:09:07.369Z,10.92
2022-10-18T21:11:42.477Z,10.88
2022-10-18T21:14:16.280Z,10.82
2022-10-18T21:16:43.839Z,10.79
2022-10-18T21:19:16.377Z,10.73
2022-10-18T21:21:45.019Z,10.68
2022-10-18T21:24:13.606Z,10.64
2022-10-18T21:26:40.996Z,10.60
2022-10-18T21:29:08.388Z,10.57
2022-10-18T21:31:39.124Z,10.50
2022-10-18T21:34:13.208Z,10.44
2022-10-18T21:36:41.366Z,10.36
2022-10-18T21:39:12.193Z,10.29
2022-10-18T21:41:42.723Z,10.22
2022-10-18T21:44:11.281Z,10.15
2022-10-18T21:46:39.474Z,10.08
2022-10-18T21:49:07.294Z,10.01
2022-10-18T21:51:34.141Z,9.96
2022-10-18T21:54:00.804Z,9.92
2022-10-18T21:56:32.570Z,9.89
2022-10-18T21:59:02.753Z,9.85
2022-10-18T22:01:32.586Z,9.82
2022-10-18T22:04:00.763Z,9.78
2022-10-18T22:06:31.521Z,9.75
2022-10-18T22:09:05.602Z,9.70
2022-10-18T22:11:35.359Z,9.67
2022-10-18T22:14:02.068Z,9.69
2022-10-18T22:16:29.279Z,9.64
2022-10-18T22:19:01.418Z,9.61
2022-10-18T22:21:28.458Z,9.60
2022-10-18T22:23:59.537Z,9.57
2022-10-18T22:26:33.597Z,9.55
2022-10-18T22:29:03.454Z,9.52
2022-10-18T22:31:33.098Z,9.51
2022-10-18T22:34:06.285Z,9.47
2022-10-18T22:36:33.741Z,9.44
2022-10-18T22:39:00.752Z,9.39
2022-10-18T22:41:27.489Z,9.37
2022-10-18T22:43:56.428Z,9.35
2022-10-18T22:46:26.111Z,9.32
2022-10-18T22:48:53.051Z,9.28
2022-10-18T22:51:19.730Z,9.25
2022-10-18T22:53:46.683Z,9.26
2022-10-18T22:56:16.303Z,9.24
2022-10-18T22:58:43.266Z,9.22
2022-10-18T23:01:15.979Z,9.21
2022-10-18T23:03:42.856Z,9.20
2022-10-18T23:06:31.188Z,9.17
2022-10-18T23:09:00.485Z,9.15
2022-10-18T23:11:28.682Z,9.09
2022-10-18T23:13:55.321Z,9.05
2022-10-18T23:16:22.195Z,8.99
2022-10-18T23:18:51.238Z,8.93
2022-10-18T23:21:18.835Z,8.89
2022-10-18T23:23:45.602Z,8.85
2022-10-18T23:26:18.165Z,8.82
2022-10-18T23:28:46.918Z,8.79
2022-10-18T23:31:18.166Z,8.76
2022-10-18T23:33:46.572Z,8.70
2022-10-18T23:36:13.689Z,8.68
2022-10-18T23:38:41.165Z,8.64
2022-10-18T23:41:09.896Z,8.57
2022-10-18T23:43:36.623Z,8.54
2022-10-18T23:46:03.678Z,8.49
2022-10-18T23:48:30.451Z,8.47
2022-10-18T23:50:57.336Z,8.44
2022-10-18T23:53:26.460Z,8.41
2022-10-18T23:56:00.825Z,8.41
2022-10-18T23:58:30.124Z,8.36
